Domov               UVHVVR             MKGP            O straneh              
ZDRAVSTVENO VARSTVO RASTLIN
  MREŽA AGROMET. POSTAJ
 ► PROGNOSTIČNA OBVESTILA
AGROMETEOROLOŠKI PODATKI -
ARSO
OBVLADOVANJE TVEGANJ ZARADI
NEUGODNIH VREMENSKIH RAZMER
  ► NARAVNE NESREČE
  ► SUŠA/MOČA
  ► NAMAKANJE
  ► ŽLED (gozdarstvo)
KARTOGRAFSKI PRIKAZI
SPLETNE POVEZAVE
PROJEKTI IN PUBLIKACIJE

AGROMETEOROLOŠKA MREŽA: VREMENSKE POSTAJE IN FENOLOŠKA OPAZOVANJA

Pregled podatkov za lokacijo Slom, meteorološka postaja 42786

Pregled senzorjev na lokaciji

ID Ime Zadnja
vrednost
Datum
zadnje
spremembe
Tip
senzorja
2126 Temperatura 2 m ( °C) 18,59 °C 19.8.2017 20:00 50YA
2127 Relativna vlaga 2 m (% RH) 78,03 % RH 19.8.2017 20:00 50YA
2128 Omočenost lista (U) 0 U 19.8.2017 20:00 A730WET
2129 Padavine 0.2 mm (mm) 0 mm 19.8.2017 20:00 Rain-O-Matic

Pregled podatkov zadnjih 24 ur

Zap.
št.
Datum in čas Slom
Omočenost
lista
Padavine
0.2
mm
Relativna
vlaga
2
m
Temperatura
2
m
0 19.8.2017 19:00 0 0 78,03 18,59
1 19.8.2017 18:30 0 0 77,7 19,05
2 19.8.2017 18:00 0 0 75,43 19,55
3 19.8.2017 17:30 0 0 72,46 19,95
4 19.8.2017 17:00 0 0 68,45 20,65
5 19.8.2017 16:30 0 0 70,74 21,02
6 19.8.2017 16:00 7 0 78,04 21,16
7 19.8.2017 15:30 10 0 77,73 21,36
8 19.8.2017 15:00 10 0,2 77,98 21,01
9 19.8.2017 14:30 10 0 73,87 21,72
10 19.8.2017 14:00 10 0 74,29 22,05
11 19.8.2017 13:30 10 0,2 79,12 21,44
12 19.8.2017 13:00 10 0,2 70,79 22,52
13 19.8.2017 12:30 2 0 63,68 24,18
14 19.8.2017 12:00 1 0 62,84 24,69
15 19.8.2017 11:30 1 0 62,32 24,51
16 19.8.2017 11:00 1 0 60,62 25
17 19.8.2017 10:30 1 0 58,67 25,54
18 19.8.2017 10:00 2 0 60,21 24,7
19 19.8.2017 09:30 2 0 64,9 24,46
20 19.8.2017 09:00 2 0 66,25 24,17
21 19.8.2017 08:30 4 0 69,77 22,96
22 19.8.2017 08:00 10 0 75,48 21,66
23 19.8.2017 07:30 10 0 86,11 19,87
24 19.8.2017 07:00 10 0 98,3 17,51
25 19.8.2017 06:30 10 0 100 15,56
26 19.8.2017 06:00 10 0 100 14,23
27 19.8.2017 05:30 10 0 99,98 14,02
28 19.8.2017 05:00 10 0 99,96 14,06
29 19.8.2017 04:30 10 0 99,91 14,24
30 19.8.2017 04:00 10 0 99,86 14,34
31 19.8.2017 03:30 10 0 99,69 14,58
32 19.8.2017 03:00 10 0 99,74 14,83
33 19.8.2017 02:30 10 0 99,44 15,06
34 19.8.2017 02:00 10 0 99,21 15,3
35 19.8.2017 01:30 10 0 99,08 15,57
36 19.8.2017 01:00 9 0 98,82 15,89
37 19.8.2017 00:30 9 0 98,41 16,24
38 19.8.2017 00:00 9 0 97,99 16,54
39 18.8.2017 23:30 9 0 97,57 16,94
40 18.8.2017 23:00 9 0 97,92 17,11
41 18.8.2017 22:30 9 0 97,76 17,38
42 18.8.2017 22:00 8 0 97,05 17,82
43 18.8.2017 21:30 6 0 96,39 18,21
44 18.8.2017 21:00 0 0 93,01 18,94
45 18.8.2017 20:30 0 0 90,53 19,73
© 2011 Ministrstvo za kmetijstvo, gozdarstvo in prehrano. Vse pravice pridržane.